Time;durP1;ratioP1;P1;durP2;ratioP2;P2;SDS_P1;SDS_P2;PMS_P1;PMS_P2;Temp;Humidity;BMP_temperature;BMP_pressure;BME280_temperature;BME280_humidity;BME280_pressure;Samples;Min_cycle;Max_cycle;Signal;HPM_P1;HPM_P2
2021/04/01 00:00:16;;;;;;;12.23;6.80;;;;;;;8.54;47.71;100047.19;5052531;28;20443;-49
2021/04/01 00:02:43;;;;;;;8.85;6.70;;;;;;;8.76;46.72;100053.41;5052676;28;20029;-49
2021/04/01 00:05:09;;;;;;;10.32;6.45;;;;;;;8.59;47.07;100058.91;5052659;28;20025;-49
2021/04/01 00:07:34;;;;;;;11.40;6.22;;;;;;;8.84;46.67;100057.81;5052385;28;20041;-52
2021/04/01 00:10:00;;;;;;;11.40;6.45;;;;;;;8.87;45.75;100055.59;5050207;28;20115;-52
2021/04/01 00:12:26;;;;;;;10.00;6.75;;;;;;;8.52;47.39;100044.72;5032683;28;20017;-50
2021/04/01 00:14:51;;;;;;;12.35;6.43;;;;;;;8.75;46.29;100043.81;5032591;28;20025;-47
2021/04/01 00:17:17;;;;;;;11.43;6.50;;;;;;;8.42;47.88;100036.22;5032269;28;20501;-50
2021/04/01 00:19:42;;;;;;;10.38;6.85;;;;;;;8.38;47.24;100030.41;5032432;28;20026;-48
2021/04/01 00:22:08;;;;;;;10.02;6.75;;;;;;;8.44;47.48;100042.16;5041054;28;20488;-49
2021/04/01 00:24:33;;;;;;;10.20;6.63;;;;;;;8.45;47.05;100035.84;5052054;28;20017;-48
2021/04/01 00:26:59;;;;;;;10.95;6.65;;;;;;;8.55;47.80;100039.06;5051954;28;20032;-50
2021/04/01 00:29:24;;;;;;;9.95;5.97;;;;;;;8.40;47.63;100035.53;5052081;28;20017;-50
2021/04/01 00:31:50;;;;;;;10.63;6.70;;;;;;;8.51;47.35;100040.44;5052109;28;20516;-50
2021/04/01 00:34:15;;;;;;;9.60;6.40;;;;;;;8.38;48.57;100029.59;5051849;28;20033;-49
2021/04/01 00:36:41;;;;;;;11.02;6.57;;;;;;;8.46;47.62;100023.41;5051917;28;20033;-50
2021/04/01 00:39:06;;;;;;;9.65;6.35;;;;;;;8.48;47.00;100024.88;5051792;28;20087;-48
2021/04/01 00:41:32;;;;;;;11.02;6.10;;;;;;;8.44;47.75;100026.25;5051721;28;20385;-48
2021/04/01 00:44:05;;;;;;;9.90;6.00;;;;;;;8.54;47.51;100023.31;5051835;28;20031;-47
2021/04/01 00:46:30;;;;;;;13.25;7.00;;;;;;;8.58;46.74;100014.78;5051696;28;20558;-47
2021/04/01 00:48:56;;;;;;;14.73;6.68;;;;;;;8.56;46.91;100018.66;5051655;28;20024;-47
2021/04/01 00:51:21;;;;;;;11.00;6.32;;;;;;;8.38;47.06;100025.13;5051792;28;20071;-51
2021/04/01 00:53:47;;;;;;;10.20;6.50;;;;;;;8.38;46.94;100025.13;5050823;28;20029;-48
2021/04/01 00:56:12;;;;;;;11.77;6.18;;;;;;;8.59;46.92;100020.94;5042120;28;20021;-48
2021/04/01 00:58:38;;;;;;;9.50;6.07;;;;;;;8.41;46.71;100008.00;5043327;28;20048;-50
2021/04/01 01:03:35;;;;;;;9.93;7.13;;;;;;;8.65;46.72;100014.09;5037357;28;20452;-49
2021/04/01 01:06:00;;;;;;;9.90;6.35;;;;;;;8.54;45.92;99997.59;5039590;28;20072;-48
2021/04/01 01:08:26;;;;;;;9.20;6.47;;;;;;;8.73;46.17;99998.06;5047017;28;20163;-49
2021/04/01 01:10:51;;;;;;;11.27;6.15;;;;;;;8.59;46.38;99992.59;5051109;28;20044;-51
2021/04/01 01:13:17;;;;;;;10.95;6.40;;;;;;;8.60;45.99;99980.97;5051586;28;20079;-49
2021/04/01 01:15:42;;;;;;;12.07;5.97;;;;;;;8.32;46.92;99993.19;5039275;28;20087;-48
2021/04/01 01:18:08;;;;;;;10.30;6.47;;;;;;;8.38;47.05;99989.81;5031890;28;20091;-50
2021/04/01 01:20:33;;;;;;;9.40;6.00;;;;;;;8.49;47.22;99994.69;5049462;28;20127;-47
2021/04/01 01:23:03;;;;;;;8.48;6.60;;;;;;;8.54;46.30;99986.19;5051986;28;20449;-49
2021/04/01 01:25:29;;;;;;;11.93;7.05;;;;;;;8.73;46.15;99985.59;5051543;28;20044;-49
2021/04/01 01:27:54;;;;;;;9.73;6.60;;;;;;;8.73;46.31;99980.28;5051765;28;20143;-49
2021/04/01 01:30:20;;;;;;;11.45;6.47;;;;;;;8.74;46.43;99981.94;5050533;28;20059;-49
2021/04/01 01:32:47;;;;;;;11.77;6.50;;;;;;;8.62;46.82;99970.16;5050404;28;20529;-51
2021/04/01 01:35:21;;;;;;;8.65;6.35;;;;;;;8.64;46.02;99970.78;5051493;28;20025;-49
2021/04/01 01:37:57;;;;;;;10.30;6.22;;;;;;;8.59;45.97;99970.53;5051634;28;20071;-49
2021/04/01 01:40:24;;;;;;;10.80;6.80;;;;;;;8.61;46.30;99966.69;5051442;28;20107;-49
2021/04/01 01:42:49;;;;;;;10.77;6.97;;;;;;;8.67;46.13;99956.34;5050761;28;20311;-49
2021/04/01 01:45:15;;;;;;;10.13;6.25;;;;;;;8.60;46.08;99953.59;5031561;28;20479;-49
2021/04/01 01:47:41;;;;;;;8.18;5.72;;;;;;;8.52;46.53;99951.88;5031889;28;20033;-49
2021/04/01 01:50:07;;;;;;;9.13;6.40;;;;;;;8.51;46.22;99952.91;5029988;28;20492;-47
2021/04/01 01:52:32;;;;;;;10.55;6.45;;;;;;;8.54;46.82;99936.59;5029696;28;20417;-48
2021/04/01 01:54:58;;;;;;;12.32;6.85;;;;;;;8.58;46.37;99943.16;5039095;28;20025;-47
2021/04/01 01:57:23;;;;;;;10.52;6.65;;;;;;;8.70;45.97;99942.69;5030989;28;20465;-48
2021/04/01 01:59:49;;;;;;;11.55;7.07;;;;;;;8.43;46.54;99949.50;5030853;28;20456;-47
2021/04/01 02:02:14;;;;;;;12.27;7.10;;;;;;;8.54;46.66;99946.38;5028783;28;20025;-46
2021/04/01 02:04:39;;;;;;;12.45;6.97;;;;;;;8.49;46.63;99948.75;5030720;28;20036;-48
2021/04/01 02:07:05;;;;;;;12.30;6.97;;;;;;;8.68;45.92;99936.75;5030774;28;20033;-48
2021/04/01 02:09:30;;;;;;;11.00;6.47;;;;;;;8.75;45.88;99938.47;5031212;28;20029;-48
2021/04/01 02:11:56;;;;;;;11.82;6.82;;;;;;;8.71;46.07;99929.25;5030644;28;20033;-48
2021/04/01 02:14:21;;;;;;;13.27;6.60;;;;;;;8.87;46.16;99938.84;5030723;28;20037;-49
2021/04/01 02:16:47;;;;;;;12.43;6.38;;;;;;;8.78;46.38;99937.31;5030834;28;20485;-50
2021/04/01 02:19:12;;;;;;;10.32;6.30;;;;;;;8.56;47.67;99942.53;5030706;28;20028;-48
2021/04/01 02:21:38;;;;;;;11.45;6.95;;;;;;;8.44;47.49;99943.22;5034965;28;20381;-51
2021/04/01 02:24:04;;;;;;;11.70;6.55;;;;;;;8.50;47.01;99945.13;5050714;28;20020;-49
2021/04/01 02:26:29;;;;;;;9.90;6.68;;;;;;;8.52;47.84;99946.56;5050396;28;20040;-48
2021/04/01 02:28:55;;;;;;;15.00;7.05;;;;;;;8.42;47.19;99932.78;5050111;28;20029;-47
2021/04/01 02:31:20;;;;;;;11.20;6.60;;;;;;;8.44;48.37;99925.47;5050393;28;20040;-49
2021/04/01 02:33:46;;;;;;;13.93;7.45;;;;;;;8.34;48.07;99928.38;5045356;28;20452;-50
2021/04/01 02:36:12;;;;;;;17.27;7.93;;;;;;;8.48;47.66;99921.44;5030405;28;20364;-48
2021/04/01 02:38:37;;;;;;;12.93;8.00;;;;;;;8.25;47.93;99926.81;5030403;28;20033;-51
2021/04/01 02:41:03;;;;;;;10.55;7.45;;;;;;;8.40;48.05;99929.47;5030388;28;20017;-51
2021/04/01 02:43:34;;;;;;;23.20;8.02;;;;;;;8.48;47.52;99924.09;5030344;28;20070;-51
2021/04/01 02:46:01;;;;;;;15.23;7.28;;;;;;;8.50;49.12;99924.72;5030079;28;20452;-48
2021/04/01 02:48:26;;;;;;;14.48;7.60;;;;;;;8.23;48.89;99920.88;5030242;28;20021;-48
2021/04/01 02:50:52;;;;;;;19.10;8.40;;;;;;;8.20;49.76;99923.88;5030300;28;20044;-51
2021/04/01 02:53:17;;;;;;;11.38;7.40;;;;;;;8.25;49.08;99920.69;5030170;28;20104;-47
2021/04/01 02:55:43;;;;;;;16.65;7.57;;;;;;;8.14;49.80;99917.50;5047916;28;20024;-50
2021/04/01 02:58:08;;;;;;;13.25;7.28;;;;;;;8.05;49.93;99917.78;5049995;28;20132;-50
2021/04/01 03:00:36;;;;;;;12.80;7.90;;;;;;;8.07;49.60;99919.22;5049711;28;20561;-51
2021/04/01 03:03:10;;;;;;;14.75;8.25;;;;;;;8.08;50.64;99914.75;5049540;28;20049;-50
2021/04/01 03:05:35;;;;;;;18.90;8.38;;;;;;;8.16;49.48;99914.66;5050366;28;20079;-52
2021/04/01 03:08:01;;;;;;;12.27;7.57;;;;;;;8.16;49.04;99906.72;5049573;28;20048;-46
2021/04/01 03:10:26;;;;;;;13.35;8.10;;;;;;;8.17;49.29;99901.22;5049855;28;20029;-51
2021/04/01 03:12:52;;;;;;;22.65;9.25;;;;;;;8.28;49.36;99905.25;5050329;28;20485;-51
2021/04/01 03:15:17;;;;;;;48.00;10.68;;;;;;;8.19;50.36;99899.22;5054079;28;20024;-49
2021/04/01 03:17:43;;;;;;;28.30;9.30;;;;;;;8.32;49.09;99897.72;5053896;28;20021;-51
2021/04/01 03:20:09;;;;;;;23.08;8.40;;;;;;;8.31;50.06;99893.44;5053952;28;20124;-49
2021/04/01 03:22:36;;;;;;;20.90;8.05;;;;;;;8.20;49.80;99892.88;5046900;28;20029;-49
2021/04/01 03:25:03;;;;;;;20.35;8.10;;;;;;;8.07;49.95;99892.72;5053413;28;20020;-51
2021/04/01 03:27:28;;;;;;;17.48;8.95;;;;;;;8.04;51.30;99890.44;5052267;28;20021;-50
2021/04/01 03:30:04;;;;;;;21.60;8.70;;;;;;;7.83;51.21;99889.34;5053755;28;20020;-50
2021/04/01 03:32:36;;;;;;;21.73;8.43;;;;;;;8.44;49.00;99890.97;5052957;28;20039;-49
2021/04/01 03:35:06;;;;;;;18.02;8.52;;;;;;;8.10;50.17;99888.91;5053104;28;20024;-49
2021/04/01 03:37:32;;;;;;;21.02;8.70;;;;;;;8.00;50.35;99884.69;5052482;28;20036;-47
2021/04/01 03:39:57;;;;;;;18.88;8.75;;;;;;;7.70;52.14;99883.03;5052723;28;20033;-50
2021/04/01 03:42:23;;;;;;;19.65;8.70;;;;;;;7.70;52.43;99883.03;5052875;28;20640;-49
2021/04/01 03:44:49;;;;;;;16.35;8.43;;;;;;;7.58;52.30;99880.81;5051222;28;20104;-48
2021/04/01 03:47:14;;;;;;;15.52;8.55;;;;;;;7.67;51.77;99878.09;5052441;28;20024;-49
2021/04/01 03:49:40;;;;;;;14.65;8.65;;;;;;;7.93;52.35;99877.66;5052305;28;20096;-48
2021/04/01 03:52:06;;;;;;;13.77;9.00;;;;;;;7.64;51.79;99882.75;5052400;28;20036;-49
2021/04/01 03:54:31;;;;;;;19.77;9.30;;;;;;;7.75;51.71;99884.13;5052198;28;20056;-50
2021/04/01 03:56:59;;;;;;;33.65;18.63;;;;;;;7.67;52.05;99876.25;5050806;28;20024;-48
2021/04/01 03:59:28;;;;;;;15.30;9.73;;;;;;;7.79;52.44;99893.38;5052251;28;20028;-47
2021/04/01 04:12:21;;;;;;;27.55;11.02;;;;;;;7.80;52.61;99918.03;5050916;28;20017;-49
2021/04/01 04:14:51;;;;;;;22.45;10.55;;;;;;;8.01;52.07;99904.06;5050972;28;20104;-52
2021/04/01 04:17:16;;;;;;;20.45;10.25;;;;;;;7.85;53.45;99913.00;5050797;28;20032;-48
2021/04/01 04:19:41;;;;;;;27.13;10.95;;;;;;;7.93;53.00;99915.56;5050768;28;20029;-47
2021/04/01 04:22:09;;;;;;;21.83;11.45;;;;;;;7.75;53.46;99923.88;5050589;28;20032;-48
2021/04/01 04:24:36;;;;;;;23.23;11.25;;;;;;;7.52;54.03;99908.03;5050191;28;20075;-49
2021/04/01 04:27:16;;;;;;;26.52;10.13;;;;;;;7.32;54.46;99907.69;5050515;28;20040;-49
2021/04/01 04:29:41;;;;;;;78.57;33.67;;;;;;;7.36;54.88;99911.63;5050513;28;20047;-52
2021/04/01 04:32:07;;;;;;;58.90;26.30;;;;;;;7.46;55.14;99907.91;5050166;28;20477;-49
2021/04/01 04:34:32;;;;;;;23.95;11.30;;;;;;;7.59;54.39;99914.25;5050464;28;20393;-49
2021/04/01 04:36:58;;;;;;;29.77;11.98;;;;;;;7.79;53.88;99919.84;5049120;28;20029;-51
2021/04/01 04:39:23;;;;;;;29.20;12.70;;;;;;;8.17;53.01;99917.13;5050618;28;20108;-50
2021/04/01 04:41:49;;;;;;;21.88;12.88;;;;;;;8.55;51.65;99921.53;5050521;28;20064;-52
2021/04/01 04:44:14;;;;;;;24.90;10.95;;;;;;;8.70;54.79;99927.63;5050618;28;20021;-48
2021/04/01 04:46:40;;;;;;;22.13;10.68;;;;;;;8.99;51.45;99931.19;5050492;28;20024;-49
2021/04/01 04:49:05;;;;;;;29.42;15.57;;;;;;;9.65;52.36;99915.00;5050352;28;20035;-47
2021/04/01 04:51:31;;;;;;;32.80;15.00;;;;;;;10.06;50.00;99924.09;5050188;28;20032;-49
2021/04/01 04:53:56;;;;;;;22.05;11.20;;;;;;;10.39;48.82;99918.16;5049880;28;20024;-47
2021/04/01 04:56:24;;;;;;;19.15;10.55;;;;;;;11.21;46.99;99916.31;5048375;28;20017;-48
2021/04/01 05:09:09;;;;;;;30.83;16.17;;;;;;;11.40;46.71;99933.34;5004240;28;776760;-48
2021/04/01 05:11:34;;;;;;;17.27;11.07;;;;;;;11.69;46.67;99934.78;5030960;28;20045;-51
2021/04/01 05:14:00;;;;;;;19.05;11.25;;;;;;;12.23;45.10;99932.91;5031183;28;20033;-49
2021/04/01 05:16:26;;;;;;;17.33;10.73;;;;;;;13.64;43.98;99933.78;5031301;28;20104;-51
2021/04/01 05:18:52;;;;;;;18.00;10.88;;;;;;;13.59;42.11;99930.94;5031015;28;20122;-52
2021/04/01 05:21:19;;;;;;;17.73;9.85;;;;;;;13.36;42.94;99927.00;5032427;28;20030;-47
2021/04/01 05:23:48;;;;;;;21.90;10.65;;;;;;;13.10;44.05;99936.00;5050953;28;20039;-51
2021/04/01 05:28:39;;;;;;;17.20;10.50;;;;;;;14.36;40.79;99938.63;5041872;28;20031;-38
2021/04/01 05:31:07;;;;;;;19.15;10.57;;;;;;;13.87;41.53;99946.53;5040900;28;20018;-37
2021/04/01 05:33:34;;;;;;;20.23;10.63;;;;;;;13.71;42.37;99949.75;5042112;28;20040;-38
2021/04/01 05:36:07;;;;;;;20.38;11.00;;;;;;;14.77;39.06;99937.13;5040325;28;20025;-37
2021/04/01 05:38:33;;;;;;;15.90;10.32;;;;;;;14.40;41.07;99943.31;5042561;28;20075;-38
2021/04/01 05:41:00;;;;;;;16.88;10.52;;;;;;;14.35;42.29;99953.88;5038823;28;20485;-38
2021/04/01 05:43:28;;;;;;;17.27;10.00;;;;;;;15.32;41.23;99965.63;5035993;28;20013;-38
2021/04/01 05:46:10;;;;;;;19.27;12.35;;;;;;;15.75;37.27;99959.22;5037443;28;20418;-38
2021/04/01 05:48:42;;;;;;;20.10;10.45;;;;;;;15.39;37.23;99955.63;5039077;28;20119;-38
2021/04/01 05:51:35;;;;;;;22.55;13.00;;;;;;;15.37;38.36;99966.59;5022473;28;20505;-38
2021/04/01 05:54:45;;;;;;;20.35;9.98;;;;;;;15.88;38.77;99961.69;5038399;28;20082;-39
2021/04/01 06:00:01;;;;;;;17.73;11.18;;;;;;;15.83;36.92;99948.94;5039713;28;20146;-37
2021/04/01 06:02:35;;;;;;;15.20;10.40;;;;;;;15.95;35.99;99958.88;5029427;28;20033;-42
2021/04/01 06:05:08;;;;;;;19.15;10.63;;;;;;;15.34;37.67;99961.66;5014066;28;20436;-38
2021/04/01 06:07:39;;;;;;;19.67;11.07;;;;;;;15.94;36.62;99965.31;5030312;28;20053;-37
2021/04/01 06:10:05;;;;;;;18.70;10.70;;;;;;;17.26;34.87;99976.34;5029964;28;20029;-38
2021/04/01 06:12:31;;;;;;;17.70;10.63;;;;;;;17.15;34.51;99973.47;5030250;28;20098;-38
2021/04/01 06:15:12;;;;;;;19.63;11.18;;;;;;;16.12;35.78;99969.72;5030307;28;20029;-39
2021/04/01 06:17:44;;;;;;;21.98;11.27;;;;;;;17.11;34.50;99971.50;5030365;28;20114;-38
2021/04/01 06:20:10;;;;;;;17.92;10.50;;;;;;;17.56;33.60;99970.66;5029132;28;20039;-39
2021/04/01 06:22:35;;;;;;;18.27;10.60;;;;;;;17.23;33.66;99974.13;5042077;28;20396;-38
2021/04/01 06:25:01;;;;;;;18.30;10.98;;;;;;;18.10;32.75;99968.28;5031871;28;20036;-38
2021/04/01 06:27:36;;;;;;;19.88;11.02;;;;;;;18.84;31.51;99966.28;5031958;28;20025;-38
2021/04/01 06:32:41;;;;;;;13.68;9.73;;;;;;;17.82;33.03;99974.59;5049908;28;20357;-38
2021/04/01 06:35:09;;;;;;;14.35;10.20;;;;;;;19.14;31.69;99968.50;5050156;28;20058;-38
2021/04/01 06:40:04;;;;;;;17.27;10.07;;;;;;;17.74;33.01;99972.28;5048477;28;20029;-38
2021/04/01 06:42:33;;;;;;;16.80;10.23;;;;;;;18.56;32.50;99987.78;5049384;28;20021;-38
2021/04/01 06:45:03;;;;;;;15.38;9.57;;;;;;;18.71;30.71;99997.91;5031671;28;20021;-39
2021/04/01 06:47:29;;;;;;;18.40;11.82;;;;;;;16.96;34.69;99994.34;5049118;28;20017;-38
2021/04/01 06:50:01;;;;;;;19.60;12.85;;;;;;;16.17;37.29;100000.19;5031741;28;20408;-38
2021/04/01 06:52:38;;;;;;;24.55;13.35;;;;;;;15.73;37.85;100005.06;5050033;28;20025;-38
2021/04/01 06:55:31;;;;;;;22.02;13.35;;;;;;;14.61;39.12;100017.06;5049608;28;20059;-38
2021/04/01 06:58:21;;;;;;;23.83;11.88;;;;;;;14.58;40.27;100014.84;5049303;28;20453;-38
2021/04/01 07:01:22;;;;;;;18.40;12.05;;;;;;;15.20;38.72;100028.06;5048537;28;20108;-38
2021/04/01 07:03:49;;;;;;;22.77;11.85;;;;;;;13.38;41.87;100025.69;5049145;28;20405;-38
2021/04/01 07:06:23;;;;;;;16.17;11.05;;;;;;;13.60;41.35;100034.19;5049631;28;20084;-38
2021/04/01 07:09:01;;;;;;;19.42;11.52;;;;;;;14.35;40.28;100036.03;5047607;28;20440;-37
2021/04/01 07:11:32;;;;;;;15.40;11.05;;;;;;;13.76;40.39;100040.88;5033419;28;20108;-38
2021/04/01 07:14:16;;;;;;;23.67;10.32;;;;;;;13.81;41.84;100033.03;5049840;28;20032;-37
2021/04/01 07:35:58;;;;;;;19.95;11.60;;;;;;;15.31;37.52;100031.06;5049742;28;20065;-50
2021/04/01 07:46:33;;;;;;;21.83;11.48;;;;;;;14.59;38.52;100024.50;5048176;28;20087;-51
2021/04/01 07:49:03;;;;;;;18.27;11.90;;;;;;;14.98;38.04;100022.41;5033902;28;20083;-52
2021/04/01 07:51:58;;;;;;;19.80;11.43;;;;;;;15.82;36.56;100019.78;5049905;28;20033;-52
2021/04/01 07:55:46;;;;;;;21.70;11.80;;;;;;;15.81;36.90;100022.69;5049288;28;20103;-52
2021/04/01 08:05:34;;;;;;;14.82;10.07;;;;;;;16.49;35.69;100015.13;5052733;28;20492;-49
2021/04/01 08:08:06;;;;;;;17.98;10.93;;;;;;;16.62;34.66;100009.50;5053164;28;20053;-50
2021/04/01 08:10:38;;;;;;;14.77;9.77;;;;;;;16.84;34.57;100006.19;5053547;28;20074;-50
2021/04/01 08:13:05;;;;;;;17.73;10.30;;;;;;;16.42;34.76;100005.28;5053046;28;20094;-50
2021/04/01 08:15:48;;;;;;;18.55;10.65;;;;;;;16.33;35.58;99997.84;5053148;28;20459;-52
2021/04/01 08:20:47;;;;;;;17.13;10.68;;;;;;;16.59;33.59;99996.53;5053086;28;20029;-39
2021/04/01 08:23:21;;;;;;;18.13;11.27;;;;;;;16.73;34.41;99994.38;5052594;28;20025;-38
2021/04/01 08:25:57;;;;;;;18.02;11.00;;;;;;;17.08;33.96;99998.88;5050923;28;20099;-38
2021/04/01 08:28:33;;;;;;;16.63;9.77;;;;;;;17.15;33.78;99994.13;5040792;28;20385;-38
2021/04/01 08:36:21;;;;;;;13.52;9.18;;;;;;;17.90;32.02;99982.28;5043123;28;20533;-39
2021/04/01 08:38:46;;;;;;;16.45;9.38;;;;;;;18.37;31.38;99983.72;5041488;28;20029;-38
2021/04/01 08:41:15;;;;;;;19.85;9.45;;;;;;;18.44;30.52;99975.47;5041754;28;20102;-39
2021/04/01 08:44:11;;;;;;;20.08;9.35;;;;;;;18.20;31.50;99969.50;5051571;28;20033;-38
2021/04/01 08:47:24;;;;;;;13.80;8.98;;;;;;;18.02;32.62;99973.28;5052193;28;20033;-39
2021/04/01 08:49:59;;;;;;;16.90;10.25;;;;;;;18.08;31.99;99967.72;5043733;28;20110;-38
2021/04/01 08:52:45;;;;;;;12.93;9.18;;;;;;;17.79;31.63;99972.38;5050721;28;20040;-39
2021/04/01 08:55:17;;;;;;;13.88;8.38;;;;;;;17.87;30.85;99969.28;5051137;28;20100;-39
2021/04/01 08:58:07;;;;;;;14.15;9.00;;;;;;;18.17;31.25;99971.63;5052223;28;20112;-38
2021/04/01 09:00:32;;;;;;;13.73;9.18;;;;;;;17.76;31.23;99960.22;5052171;28;20090;-38
2021/04/01 09:03:00;;;;;;;13.32;8.75;;;;;;;17.50;30.10;99967.06;5033701;28;20033;-39
2021/04/01 09:05:26;;;;;;;11.73;7.78;;;;;;;17.88;30.23;99954.78;5050096;28;20087;-38
2021/04/01 09:07:59;;;;;;;13.43;8.27;;;;;;;17.87;30.60;99961.22;5051577;28;20053;-39
2021/04/01 09:10:30;;;;;;;14.63;8.27;;;;;;;18.54;28.73;99951.34;5049391;28;20182;-38
2021/04/01 09:15:33;;;;;;;11.75;8.30;;;;;;;19.06;28.18;99958.97;5051885;28;20468;-39
2021/04/01 09:17:59;;;;;;;12.68;9.25;;;;;;;18.47;30.23;99954.25;5052074;28;20151;-39
2021/04/01 09:20:25;;;;;;;14.70;8.48;;;;;;;18.78;30.18;99953.78;5050620;28;20025;-38
2021/04/01 09:22:53;;;;;;;12.98;9.23;;;;;;;18.67;29.55;99947.47;5037741;28;20021;-38
2021/04/01 09:25:19;;;;;;;12.80;8.35;;;;;;;18.50;28.90;99950.22;5032019;28;20445;-39
2021/04/01 09:27:50;;;;;;;13.52;8.10;;;;;;;18.90;28.21;99949.09;5045052;28;20032;-38
2021/04/01 09:30:16;;;;;;;13.88;8.07;;;;;;;18.82;28.70;99944.97;5051605;28;20025;-39
2021/04/01 09:32:41;;;;;;;16.17;8.52;;;;;;;18.51;28.45;99935.69;5049759;28;20021;-39
2021/04/01 09:35:08;;;;;;;13.23;8.23;;;;;;;18.71;29.37;99935.09;5033676;28;20135;-39
2021/04/01 09:37:33;;;;;;;11.90;7.93;;;;;;;18.58;28.64;99912.03;5050173;28;20028;-39
2021/04/01 09:40:09;;;;;;;12.95;8.30;;;;;;;18.68;28.17;99925.66;5033392;28;20029;-38
2021/04/01 09:42:42;;;;;;;11.57;7.80;;;;;;;17.82;28.95;99928.00;5051252;28;20033;-38
2021/04/01 09:45:11;;;;;;;31.50;19.17;;;;;;;18.42;29.58;99919.16;5050321;28;20036;-39
2021/04/01 09:47:45;;;;;;;11.57;8.00;;;;;;;18.80;28.91;99913.91;5051412;28;20453;-49
2021/04/01 09:50:11;;;;;;;13.85;7.88;;;;;;;18.63;28.08;99914.81;5049697;28;20190;-49
2021/04/01 09:52:41;;;;;;;13.13;7.68;;;;;;;18.93;25.65;99917.03;5050989;28;20535;-51
2021/04/01 09:55:16;;;;;;;13.40;7.43;;;;;;;18.90;26.00;99909.44;5051197;28;20024;-51
2021/04/01 09:57:45;;;;;;;10.98;7.15;;;;;;;18.41;25.80;99903.22;5050726;28;20389;-52
2021/04/01 10:00:21;;;;;;;11.63;7.50;;;;;;;18.35;25.66;99903.19;5050961;28;20031;-50
2021/04/01 10:03:29;;;;;;;13.00;7.03;;;;;;;18.42;26.51;99899.47;5050955;28;20394;-51
2021/04/01 10:05:56;;;;;;;11.82;7.55;;;;;;;18.19;26.71;99887.88;5033800;28;20044;-50
2021/04/01 10:08:23;;;;;;;10.52;7.32;;;;;;;18.27;26.47;99879.34;5031949;28;20076;-52
2021/04/01 10:10:49;;;;;;;11.35;7.00;;;;;;;18.53;27.13;99879.66;5042336;28;20025;-53
2021/04/01 10:13:16;;;;;;;12.27;7.25;;;;;;;18.75;26.02;99871.53;5040768;28;20027;-51
2021/04/01 10:15:42;;;;;;;14.60;7.80;;;;;;;19.02;25.42;99876.97;5037916;28;20048;-51
2021/04/01 10:18:07;;;;;;;11.43;7.28;;;;;;;18.94;25.74;99867.47;5043056;28;20122;-51
2021/04/01 10:20:35;;;;;;;16.52;7.28;;;;;;;19.05;25.59;99871.03;5049910;28;20025;-49
2021/04/01 10:23:07;;;;;;;12.07;7.55;;;;;;;19.17;25.17;99870.06;5050468;28;20238;-52
2021/04/01 10:25:36;;;;;;;13.98;7.57;;;;;;;19.24;24.73;99865.25;5049609;28;20052;-53
2021/04/01 10:28:45;;;;;;;15.52;7.75;;;;;;;18.93;26.02;99863.13;5032679;28;20106;-51
2021/04/01 10:30:50;;;;;;;11.60;7.32;;;;;;;19.19;24.91;99857.13;5030507;28;20131;-51
2021/04/01 10:33:36;;;;;;;11.77;7.72;;;;;;;19.06;25.57;99851.09;5033136;28;20498;-52
2021/04/01 10:36:03;;;;;;;12.13;8.27;;;;;;;18.67;25.93;99845.84;5049181;28;20484;-49
2021/04/01 10:38:29;;;;;;;10.77;7.78;;;;;;;19.05;25.95;99845.97;5049321;28;20024;-51
2021/04/01 10:40:56;;;;;;;13.23;8.00;;;;;;;19.03;25.36;99840.00;5042514;28;20053;-50
2021/04/01 10:43:22;;;;;;;13.60;9.25;;;;;;;18.68;25.59;99839.41;5030879;28;20028;-51
2021/04/01 10:45:48;;;;;;;21.27;13.82;;;;;;;19.04;24.86;99834.38;5036729;28;20104;-52
2021/04/01 10:48:23;;;;;;;13.13;7.55;;;;;;;19.51;25.13;99830.94;5033059;28;20028;-53
2021/04/01 10:50:50;;;;;;;10.95;7.43;;;;;;;19.48;25.26;99836.84;5030592;28;20108;-50
2021/04/01 10:53:23;;;;;;;12.82;7.68;;;;;;;19.74;24.09;99834.31;5030751;28;20026;-49
2021/04/01 10:55:49;;;;;;;13.60;7.43;;;;;;;19.74;24.38;99834.31;5030130;28;20021;-53
2021/04/01 10:58:15;;;;;;;11.60;7.28;;;;;;;19.17;25.12;99819.63;5029948;28;20033;-50
2021/04/01 11:00:41;;;;;;;12.60;7.70;;;;;;;19.30;25.02;99818.38;5029558;28;20029;-52
2021/04/01 11:03:09;;;;;;;11.00;7.57;;;;;;;19.14;24.81;99822.84;5028544;28;20032;-52
2021/04/01 11:05:36;;;;;;;11.95;7.93;;;;;;;18.38;25.63;99812.16;5012610;28;20028;-51
2021/04/01 11:08:06;;;;;;;17.73;7.65;;;;;;;18.60;25.91;99817.47;5030037;28;20103;-50
2021/04/01 11:10:33;;;;;;;12.13;8.20;;;;;;;18.60;25.82;99809.38;5030406;28;20064;-38
2021/04/01 11:12:59;;;;;;;12.43;7.80;;;;;;;19.08;24.87;99807.69;5030252;28;20044;-39
2021/04/01 11:15:27;;;;;;;10.20;7.40;;;;;;;19.23;25.28;99793.50;5030110;28;20030;-53
2021/04/01 11:18:04;;;;;;;12.68;8.10;;;;;;;18.87;25.22;99794.06;5030240;28;20389;-51
2021/04/01 11:20:40;;;;;;;14.10;7.63;;;;;;;18.82;25.33;99794.00;5029292;28;20025;-51
2021/04/01 11:23:07;;;;;;;14.60;7.95;;;;;;;19.70;24.60;99788.13;5036941;28;20033;-53
2021/04/01 11:25:33;;;;;;;12.88;6.80;;;;;;;20.02;23.41;99786.38;5039257;28;20033;-49
2021/04/01 11:27:58;;;;;;;9.05;6.68;;;;;;;20.13;23.31;99787.25;5037709;28;20063;-52
2021/04/01 11:30:49;;;;;;;11.30;7.25;;;;;;;19.78;23.51;99778.75;5046892;28;20059;-52
2021/04/01 11:33:15;;;;;;;;;;;;;;;19.98;23.34;99782.59;5037938;28;20030;-52
2021/04/01 11:35:43;;;;;;;10.07;7.20;;;;;;;20.50;22.65;99784.34;5046598;28;19989;-51
2021/04/01 11:38:15;;;;;;;12.38;7.05;;;;;;;20.14;23.08;99776.16;5053293;28;20040;-53
2021/04/01 11:40:40;;;;;;;9.27;6.45;;;;;;;19.59;23.83;99772.94;5052037;28;20044;-50
2021/04/01 11:43:06;;;;;;;10.68;6.80;;;;;;;19.90;23.63;99762.31;5051884;28;20037;-53
2021/04/01 11:45:36;;;;;;;10.90;7.00;;;;;;;20.36;23.48;99767.03;5053209;28;20064;-52
2021/04/01 11:48:02;;;;;;;12.60;8.27;;;;;;;21.15;23.05;99770.31;5053331;28;20025;-53
2021/04/01 11:50:28;;;;;;;11.75;7.75;;;;;;;21.08;22.37;99760.59;5053058;28;20035;-50
2021/04/01 11:52:54;;;;;;;11.43;7.07;;;;;;;20.67;22.34;99748.97;5053171;28;20029;-52
2021/04/01 11:55:20;;;;;;;9.10;6.43;;;;;;;20.41;22.67;99748.09;5053293;28;20032;-50
2021/04/01 11:57:46;;;;;;;11.65;6.97;;;;;;;20.36;23.63;99750.81;5034916;28;20044;-53
2021/04/01 12:00:24;;;;;;;10.10;6.43;;;;;;;20.45;23.18;99746.50;5052610;28;20032;-54
2021/04/01 12:03:06;;;;;;;10.95;7.38;;;;;;;20.62;22.82;99744.38;5052272;28;20032;-51
2021/04/01 12:05:37;;;;;;;9.05;6.10;;;;;;;20.77;22.05;99740.03;5052442;28;20049;-51
2021/04/01 12:08:03;;;;;;;7.90;5.53;;;;;;;20.64;21.69;99734.09;5052360;28;20057;-52
2021/04/01 12:10:29;;;;;;;8.95;6.00;;;;;;;20.69;22.14;99731.41;5052640;28;20021;-50
2021/04/01 12:12:55;;;;;;;8.40;5.80;;;;;;;20.72;21.57;99726.53;5052869;28;20025;-52
2021/04/01 12:15:34;;;;;;;14.65;5.57;;;;;;;21.00;21.67;99734.09;5052343;28;20029;-50
2021/04/01 12:18:00;;;;;;;9.70;5.45;;;;;;;20.99;21.71;99727.03;5052574;28;20515;-49
2021/04/01 12:20:26;;;;;;;7.10;5.35;;;;;;;21.58;21.29;99711.22;5052480;28;20028;-49
2021/04/01 12:22:55;;;;;;;9.07;5.40;;;;;;;22.05;20.58;99712.63;5052560;28;20487;-51
2021/04/01 12:25:21;;;;;;;8.25;5.00;;;;;;;21.67;21.08;99704.94;5052587;28;20025;-50
2021/04/01 12:27:51;;;;;;;8.40;5.70;;;;;;;21.18;21.47;99697.53;5052522;28;20021;-54
2021/04/01 12:30:21;;;;;;;8.07;5.30;;;;;;;21.10;21.22;99700.78;5050326;28;20549;-51
2021/04/01 12:32:47;;;;;;;10.20;5.95;;;;;;;20.64;21.92;99695.47;5046382;28;20032;-51
2021/04/01 12:35:15;;;;;;;10.30;5.88;;;;;;;20.29;22.75;99700.53;5050379;28;20126;-50
2021/04/01 12:37:41;;;;;;;9.00;6.00;;;;;;;20.61;22.21;99688.69;5051225;28;20033;-51
2021/04/01 12:40:10;;;;;;;10.68;5.05;;;;;;;20.26;22.52;99684.88;5051322;28;20109;-52
2021/04/01 12:42:37;;;;;;;9.07;5.70;;;;;;;19.72;23.47;99678.03;5052113;28;20029;-51
2021/04/01 12:45:19;;;;;;;10.13;5.70;;;;;;;20.76;22.44;99673.53;5052158;28;20468;-52
2021/04/01 12:47:45;;;;;;;10.15;6.47;;;;;;;20.95;22.29;99665.66;5052082;28;20028;-52
2021/04/01 12:50:11;;;;;;;9.68;5.97;;;;;;;21.19;21.91;99671.25;5052326;28;20025;-50
2021/04/01 12:52:53;;;;;;;8.88;5.75;;;;;;;21.13;21.94;99656.13;5052016;28;20112;-50
2021/04/01 12:55:32;;;;;;;7.90;5.40;;;;;;;20.75;22.14;99656.50;5051891;28;20473;-53